sensor_id;sensor_type;location;lat;lon;timestamp;P1;durP1;ratioP1;P2;durP2;ratioP2
9304;SDS011;4690;52.422;13.486;2023-09-08T00:11:39;8.57;;;7.88;;
9304;SDS011;4690;52.422;13.486;2023-09-08T00:14:05;8.38;;;7.68;;
9304;SDS011;4690;52.422;13.486;2023-09-08T00:16:31;8.60;;;7.80;;
9304;SDS011;4690;52.422;13.486;2023-09-08T00:18:57;10.75;;;8.40;;
9304;SDS011;4690;52.422;13.486;2023-09-08T00:21:26;9.52;;;8.57;;
9304;SDS011;4690;52.422;13.486;2023-09-08T00:23:52;8.20;;;7.55;;
9304;SDS011;4690;52.422;13.486;2023-09-08T00:26:18;9.00;;;8.10;;
9304;SDS011;4690;52.422;13.486;2023-09-08T00:28:47;8.40;;;7.70;;
9304;SDS011;4690;52.422;13.486;2023-09-08T00:31:13;8.48;;;7.47;;
9304;SDS011;4690;52.422;13.486;2023-09-08T00:33:39;8.73;;;7.82;;
9304;SDS011;4690;52.422;13.486;2023-09-08T00:36:06;8.35;;;7.57;;
9304;SDS011;4690;52.422;13.486;2023-09-08T00:38:32;8.25;;;7.55;;
9304;SDS011;4690;52.422;13.486;2023-09-08T00:40:57;8.52;;;7.82;;
9304;SDS011;4690;52.422;13.486;2023-09-08T00:43:25;8.88;;;8.07;;
9304;SDS011;4690;52.422;13.486;2023-09-08T00:45:52;9.27;;;8.38;;
9304;SDS011;4690;52.422;13.486;2023-09-08T00:48:20;8.75;;;7.95;;
9304;SDS011;4690;52.422;13.486;2023-09-08T00:50:46;9.07;;;8.27;;
9304;SDS011;4690;52.422;13.486;2023-09-08T00:53:12;8.45;;;7.75;;
9304;SDS011;4690;52.422;13.486;2023-09-08T00:55:39;9.13;;;8.30;;
9304;SDS011;4690;52.422;13.486;2023-09-08T00:58:06;8.77;;;7.97;;
9304;SDS011;4690;52.422;13.486;2023-09-08T01:00:31;8.60;;;7.90;;
9304;SDS011;4690;52.422;13.486;2023-09-08T01:02:57;8.27;;;7.68;;
9304;SDS011;4690;52.422;13.486;2023-09-08T01:05:24;8.90;;;7.88;;
9304;SDS011;4690;52.422;13.486;2023-09-08T01:07:50;8.75;;;7.95;;
9304;SDS011;4690;52.422;13.486;2023-09-08T01:10:18;8.52;;;7.82;;
9304;SDS011;4690;52.422;13.486;2023-09-08T01:12:44;8.70;;;7.90;;
9304;SDS011;4690;52.422;13.486;2023-09-08T01:15:10;9.43;;;8.27;;
9304;SDS011;4690;52.422;13.486;2023-09-08T01:17:35;9.00;;;8.20;;
9304;SDS011;4690;52.422;13.486;2023-09-08T01:20:04;9.05;;;8.35;;
9304;SDS011;4690;52.422;13.486;2023-09-08T01:25:48;9.45;;;8.40;;
9304;SDS011;4690;52.422;13.486;2023-09-08T01:28:27;9.40;;;8.50;;
9304;SDS011;4690;52.422;13.486;2023-09-08T01:30:55;8.75;;;8.00;;
9304;SDS011;4690;52.422;13.486;2023-09-08T01:33:22;9.07;;;8.32;;
9304;SDS011;4690;52.422;13.486;2023-09-08T01:35:48;8.65;;;7.90;;
9304;SDS011;4690;52.422;13.486;2023-09-08T01:38:14;9.63;;;8.73;;
9304;SDS011;4690;52.422;13.486;2023-09-08T01:40:41;9.75;;;8.80;;
9304;SDS011;4690;52.422;13.486;2023-09-08T01:43:07;9.55;;;8.65;;
9304;SDS011;4690;52.422;13.486;2023-09-08T01:45:32;10.10;;;9.18;;
9304;SDS011;4690;52.422;13.486;2023-09-08T01:47:58;9.48;;;8.65;;
9304;SDS011;4690;52.422;13.486;2023-09-08T01:50:24;8.70;;;7.90;;
9304;SDS011;4690;52.422;13.486;2023-09-08T01:52:50;9.02;;;8.23;;
9304;SDS011;4690;52.422;13.486;2023-09-08T01:55:16;9.13;;;8.27;;
9304;SDS011;4690;52.422;13.486;2023-09-08T01:57:42;9.75;;;8.73;;
9304;SDS011;4690;52.422;13.486;2023-09-08T02:00:10;10.05;;;9.00;;
9304;SDS011;4690;52.422;13.486;2023-09-08T02:02:36;9.30;;;8.40;;
9304;SDS011;4690;52.422;13.486;2023-09-08T02:05:02;9.35;;;8.45;;
9304;SDS011;4690;52.422;13.486;2023-09-08T02:07:28;9.20;;;8.40;;
9304;SDS011;4690;52.422;13.486;2023-09-08T02:09:54;8.80;;;8.07;;
9304;SDS011;4690;52.422;13.486;2023-09-08T02:12:21;9.30;;;8.50;;
9304;SDS011;4690;52.422;13.486;2023-09-08T02:14:46;9.32;;;8.57;;
9304;SDS011;4690;52.422;13.486;2023-09-08T02:17:12;8.75;;;8.05;;
9304;SDS011;4690;52.422;13.486;2023-09-08T02:19:38;9.43;;;8.57;;
9304;SDS011;4690;52.422;13.486;2023-09-08T02:22:04;9.60;;;8.80;;
9304;SDS011;4690;52.422;13.486;2023-09-08T02:24:29;10.15;;;9.13;;
9304;SDS011;4690;52.422;13.486;2023-09-08T02:26:55;9.40;;;8.55;;
9304;SDS011;4690;52.422;13.486;2023-09-08T02:29:21;9.02;;;8.32;;
9304;SDS011;4690;52.422;13.486;2023-09-08T02:31:47;9.30;;;8.50;;
9304;SDS011;4690;52.422;13.486;2023-09-08T02:34:14;9.20;;;8.45;;
9304;SDS011;4690;52.422;13.486;2023-09-08T02:36:39;9.38;;;8.57;;
9304;SDS011;4690;52.422;13.486;2023-09-08T02:39:05;9.43;;;8.52;;
9304;SDS011;4690;52.422;13.486;2023-09-08T02:41:32;9.40;;;8.60;;
9304;SDS011;4690;52.422;13.486;2023-09-08T02:43:59;9.32;;;8.52;;
9304;SDS011;4690;52.422;13.486;2023-09-08T02:46:25;10.00;;;9.20;;
9304;SDS011;4690;52.422;13.486;2023-09-08T02:48:51;9.90;;;9.07;;
9304;SDS011;4690;52.422;13.486;2023-09-08T02:51:17;9.40;;;8.60;;
9304;SDS011;4690;52.422;13.486;2023-09-08T02:53:43;10.70;;;9.20;;
9304;SDS011;4690;52.422;13.486;2023-09-08T02:56:09;10.35;;;8.98;;
9304;SDS011;4690;52.422;13.486;2023-09-08T02:58:35;9.88;;;8.98;;
9304;SDS011;4690;52.422;13.486;2023-09-08T03:01:14;9.80;;;8.98;;
9304;SDS011;4690;52.422;13.486;2023-09-08T03:03:45;10.70;;;9.70;;
9304;SDS011;4690;52.422;13.486;2023-09-08T03:06:13;10.18;;;9.27;;
9304;SDS011;4690;52.422;13.486;2023-09-08T03:08:40;10.40;;;9.60;;
9304;SDS011;4690;52.422;13.486;2023-09-08T03:11:07;10.20;;;9.25;;
9304;SDS011;4690;52.422;13.486;2023-09-08T03:13:33;10.27;;;9.38;;
9304;SDS011;4690;52.422;13.486;2023-09-08T03:16:07;9.40;;;8.60;;
9304;SDS011;4690;52.422;13.486;2023-09-08T03:18:34;10.00;;;9.20;;
9304;SDS011;4690;52.422;13.486;2023-09-08T03:21:05;10.88;;;9.88;;
9304;SDS011;4690;52.422;13.486;2023-09-08T03:23:38;10.43;;;9.48;;
9304;SDS011;4690;52.422;13.486;2023-09-08T03:26:07;11.00;;;9.80;;
9304;SDS011;4690;52.422;13.486;2023-09-08T03:28:34;9.77;;;8.88;;
9304;SDS011;4690;52.422;13.486;2023-09-08T03:31:02;10.48;;;9.57;;
9304;SDS011;4690;52.422;13.486;2023-09-08T03:33:28;10.10;;;9.25;;
9304;SDS011;4690;52.422;13.486;2023-09-08T03:35:54;10.15;;;9.15;;
9304;SDS011;4690;52.422;13.486;2023-09-08T03:38:20;11.02;;;9.85;;
9304;SDS011;4690;52.422;13.486;2023-09-08T03:40:46;10.15;;;9.35;;
9304;SDS011;4690;52.422;13.486;2023-09-08T03:43:12;10.15;;;9.25;;
9304;SDS011;4690;52.422;13.486;2023-09-08T03:45:39;10.00;;;9.07;;
9304;SDS011;4690;52.422;13.486;2023-09-08T03:48:05;10.27;;;9.30;;
9304;SDS011;4690;52.422;13.486;2023-09-08T03:50:31;10.32;;;9.43;;
9304;SDS011;4690;52.422;13.486;2023-09-08T03:52:57;10.25;;;9.23;;
9304;SDS011;4690;52.422;13.486;2023-09-08T03:55:22;10.70;;;9.80;;
9304;SDS011;4690;52.422;13.486;2023-09-08T03:57:48;9.70;;;8.90;;
9304;SDS011;4690;52.422;13.486;2023-09-08T04:00:14;10.63;;;9.70;;
9304;SDS011;4690;52.422;13.486;2023-09-08T04:02:45;10.02;;;9.02;;
9304;SDS011;4690;52.422;13.486;2023-09-08T04:05:11;9.75;;;8.95;;
9304;SDS011;4690;52.422;13.486;2023-09-08T04:07:37;10.82;;;9.95;;
9304;SDS011;4690;52.422;13.486;2023-09-08T04:10:02;10.85;;;9.95;;
9304;SDS011;4690;52.422;13.486;2023-09-08T04:12:29;10.77;;;9.77;;
9304;SDS011;4690;52.422;13.486;2023-09-08T04:14:54;10.27;;;9.40;;
9304;SDS011;4690;52.422;13.486;2023-09-08T04:17:20;10.77;;;9.77;;
9304;SDS011;4690;52.422;13.486;2023-09-08T04:19:46;10.55;;;9.65;;
9304;SDS011;4690;52.422;13.486;2023-09-08T04:22:12;10.82;;;9.93;;
9304;SDS011;4690;52.422;13.486;2023-09-08T04:24:37;11.52;;;10.27;;
9304;SDS011;4690;52.422;13.486;2023-09-08T04:27:03;10.45;;;9.55;;
9304;SDS011;4690;52.422;13.486;2023-09-08T04:29:29;10.98;;;10.05;;
9304;SDS011;4690;52.422;13.486;2023-09-08T04:31:55;12.18;;;11.15;;
9304;SDS011;4690;52.422;13.486;2023-09-08T04:34:21;11.55;;;10.45;;
9304;SDS011;4690;52.422;13.486;2023-09-08T04:36:46;11.40;;;10.32;;
9304;SDS011;4690;52.422;13.486;2023-09-08T04:39:12;11.23;;;10.15;;
9304;SDS011;4690;52.422;13.486;2023-09-08T04:41:40;10.88;;;9.88;;
9304;SDS011;4690;52.422;13.486;2023-09-08T04:44:06;10.25;;;9.35;;
9304;SDS011;4690;52.422;13.486;2023-09-08T04:46:31;11.05;;;10.15;;
9304;SDS011;4690;52.422;13.486;2023-09-08T04:48:58;10.35;;;9.45;;
9304;SDS011;4690;52.422;13.486;2023-09-08T04:51:24;11.30;;;10.30;;
9304;SDS011;4690;52.422;13.486;2023-09-08T04:53:50;11.48;;;10.38;;
9304;SDS011;4690;52.422;13.486;2023-09-08T04:56:15;10.32;;;9.43;;
9304;SDS011;4690;52.422;13.486;2023-09-08T04:58:41;10.98;;;10.02;;
9304;SDS011;4690;52.422;13.486;2023-09-08T05:01:07;11.88;;;10.70;;
9304;SDS011;4690;52.422;13.486;2023-09-08T05:03:32;13.18;;;11.93;;
9304;SDS011;4690;52.422;13.486;2023-09-08T05:05:58;11.75;;;10.73;;
9304;SDS011;4690;52.422;13.486;2023-09-08T05:08:26;13.10;;;12.00;;
9304;SDS011;4690;52.422;13.486;2023-09-08T05:10:52;12.65;;;11.45;;
9304;SDS011;4690;52.422;13.486;2023-09-08T05:13:17;13.30;;;11.90;;
9304;SDS011;4690;52.422;13.486;2023-09-08T05:15:44;13.63;;;12.18;;
9304;SDS011;4690;52.422;13.486;2023-09-08T05:18:13;13.80;;;12.40;;
9304;SDS011;4690;52.422;13.486;2023-09-08T05:20:39;16.30;;;12.75;;
9304;SDS011;4690;52.422;13.486;2023-09-08T05:23:05;14.13;;;12.32;;
9304;SDS011;4690;52.422;13.486;2023-09-08T05:25:30;12.77;;;11.45;;
9304;SDS011;4690;52.422;13.486;2023-09-08T05:27:56;16.25;;;13.15;;
9304;SDS011;4690;52.422;13.486;2023-09-08T05:30:22;17.00;;;12.45;;
9304;SDS011;4690;52.422;13.486;2023-09-08T05:32:47;13.30;;;11.98;;
9304;SDS011;4690;52.422;13.486;2023-09-08T05:35:13;13.25;;;11.98;;
9304;SDS011;4690;52.422;13.486;2023-09-08T05:37:39;13.38;;;12.18;;
9304;SDS011;4690;52.422;13.486;2023-09-08T05:40:05;14.15;;;12.90;;
9304;SDS011;4690;52.422;13.486;2023-09-08T05:42:32;14.18;;;12.13;;
9304;SDS011;4690;52.422;13.486;2023-09-08T05:44:57;14.80;;;12.90;;
9304;SDS011;4690;52.422;13.486;2023-09-08T05:47:23;13.27;;;12.10;;
9304;SDS011;4690;52.422;13.486;2023-09-08T05:49:49;13.75;;;11.82;;
9304;SDS011;4690;52.422;13.486;2023-09-08T05:52:14;13.13;;;11.93;;
9304;SDS011;4690;52.422;13.486;2023-09-08T05:54:40;12.32;;;11.32;;
9304;SDS011;4690;52.422;13.486;2023-09-08T05:57:06;11.50;;;10.50;;
9304;SDS011;4690;52.422;13.486;2023-09-08T05:59:32;12.48;;;11.38;;
9304;SDS011;4690;52.422;13.486;2023-09-08T06:01:57;10.40;;;9.50;;
9304;SDS011;4690;52.422;13.486;2023-09-08T06:04:23;13.07;;;11.90;;
9304;SDS011;4690;52.422;13.486;2023-09-08T06:06:49;12.40;;;11.30;;
9304;SDS011;4690;52.422;13.486;2023-09-08T06:09:15;14.05;;;11.00;;
9304;SDS011;4690;52.422;13.486;2023-09-08T06:11:41;12.55;;;11.35;;
9304;SDS011;4690;52.422;13.486;2023-09-08T06:14:07;12.32;;;11.23;;
9304;SDS011;4690;52.422;13.486;2023-09-08T06:16:33;12.43;;;11.23;;
9304;SDS011;4690;52.422;13.486;2023-09-08T06:19:00;11.50;;;10.40;;
9304;SDS011;4690;52.422;13.486;2023-09-08T06:21:28;11.80;;;10.70;;
9304;SDS011;4690;52.422;13.486;2023-09-08T06:23:53;12.40;;;10.23;;
9304;SDS011;4690;52.422;13.486;2023-09-08T06:26:19;10.95;;;9.82;;
9304;SDS011;4690;52.422;13.486;2023-09-08T06:28:45;11.38;;;10.27;;
9304;SDS011;4690;52.422;13.486;2023-09-08T06:31:11;12.10;;;10.80;;
9304;SDS011;4690;52.422;13.486;2023-09-08T06:33:36;10.70;;;9.70;;
9304;SDS011;4690;52.422;13.486;2023-09-08T06:36:02;11.05;;;9.98;;
9304;SDS011;4690;52.422;13.486;2023-09-08T06:38:28;11.45;;;10.30;;
9304;SDS011;4690;52.422;13.486;2023-09-08T06:40:56;10.68;;;9.75;;
9304;SDS011;4690;52.422;13.486;2023-09-08T06:43:22;11.95;;;9.95;;
9304;SDS011;4690;52.422;13.486;2023-09-08T06:45:48;10.30;;;9.30;;
9304;SDS011;4690;52.422;13.486;2023-09-08T06:48:14;10.27;;;9.25;;
9304;SDS011;4690;52.422;13.486;2023-09-08T06:50:41;10.25;;;9.25;;
9304;SDS011;4690;52.422;13.486;2023-09-08T06:53:07;8.82;;;8.10;;
9304;SDS011;4690;52.422;13.486;2023-09-08T06:55:32;12.68;;;9.80;;
9304;SDS011;4690;52.422;13.486;2023-09-08T06:57:58;12.52;;;9.93;;
9304;SDS011;4690;52.422;13.486;2023-09-08T07:00:24;9.63;;;8.63;;
9304;SDS011;4690;52.422;13.486;2023-09-08T07:02:50;10.27;;;9.23;;
9304;SDS011;4690;52.422;13.486;2023-09-08T07:05:15;9.45;;;8.50;;
9304;SDS011;4690;52.422;13.486;2023-09-08T07:07:41;12.00;;;9.18;;
9304;SDS011;4690;52.422;13.486;2023-09-08T07:10:08;10.13;;;9.00;;
9304;SDS011;4690;52.422;13.486;2023-09-08T07:12:34;9.90;;;8.95;;
9304;SDS011;4690;52.422;13.486;2023-09-08T07:15:00;9.10;;;8.20;;
9304;SDS011;4690;52.422;13.486;2023-09-08T07:17:26;9.52;;;8.38;;
9304;SDS011;4690;52.422;13.486;2023-09-08T07:19:52;9.50;;;8.60;;
9304;SDS011;4690;52.422;13.486;2023-09-08T07:22:18;10.07;;;8.88;;
9304;SDS011;4690;52.422;13.486;2023-09-08T07:24:44;11.63;;;9.05;;
9304;SDS011;4690;52.422;13.486;2023-09-08T07:27:10;8.98;;;8.07;;
9304;SDS011;4690;52.422;13.486;2023-09-08T07:29:39;10.95;;;8.38;;
9304;SDS011;4690;52.422;13.486;2023-09-08T07:32:06;9.02;;;8.18;;
9304;SDS011;4690;52.422;13.486;2023-09-08T07:34:33;9.23;;;8.38;;
9304;SDS011;4690;52.422;13.486;2023-09-08T07:36:59;9.55;;;8.68;;
9304;SDS011;4690;52.422;13.486;2023-09-08T07:39:26;11.05;;;8.80;;
9304;SDS011;4690;52.422;13.486;2023-09-08T07:41:51;9.93;;;8.20;;
9304;SDS011;4690;52.422;13.486;2023-09-08T07:44:18;10.00;;;8.10;;
9304;SDS011;4690;52.422;13.486;2023-09-08T07:46:44;8.60;;;7.88;;
9304;SDS011;4690;52.422;13.486;2023-09-08T07:49:11;8.90;;;8.05;;
9304;SDS011;4690;52.422;13.486;2023-09-08T07:51:36;10.00;;;7.88;;
9304;SDS011;4690;52.422;13.486;2023-09-08T07:54:02;8.82;;;7.93;;
9304;SDS011;4690;52.422;13.486;2023-09-08T07:56:29;11.95;;;8.35;;
9304;SDS011;4690;52.422;13.486;2023-09-08T07:58:55;12.73;;;7.80;;
9304;SDS011;4690;52.422;13.486;2023-09-08T08:01:21;12.93;;;8.55;;
9304;SDS011;4690;52.422;13.486;2023-09-08T08:03:46;10.30;;;7.72;;
9304;SDS011;4690;52.422;13.486;2023-09-08T08:06:12;8.13;;;7.32;;
9304;SDS011;4690;52.422;13.486;2023-09-08T08:08:38;8.43;;;7.40;;
9304;SDS011;4690;52.422;13.486;2023-09-08T08:11:09;8.48;;;7.57;;
9304;SDS011;4690;52.422;13.486;2023-09-08T08:13:40;8.32;;;7.53;;
9304;SDS011;4690;52.422;13.486;2023-09-08T08:16:06;12.07;;;8.00;;
9304;SDS011;4690;52.422;13.486;2023-09-08T08:18:32;15.13;;;7.85;;
9304;SDS011;4690;52.422;13.486;2023-09-08T08:20:58;8.02;;;7.22;;
9304;SDS011;4690;52.422;13.486;2023-09-08T08:23:25;9.82;;;7.97;;
9304;SDS011;4690;52.422;13.486;2023-09-08T08:25:51;8.35;;;7.32;;
9304;SDS011;4690;52.422;13.486;2023-09-08T08:28:17;8.48;;;7.57;;
9304;SDS011;4690;52.422;13.486;2023-09-08T08:30:43;9.60;;;7.43;;
9304;SDS011;4690;52.422;13.486;2023-09-08T08:33:08;10.20;;;7.38;;
9304;SDS011;4690;52.422;13.486;2023-09-08T08:35:35;8.35;;;7.28;;
9304;SDS011;4690;52.422;13.486;2023-09-08T08:38:01;8.95;;;7.20;;
9304;SDS011;4690;52.422;13.486;2023-09-08T08:40:27;11.52;;;7.78;;
9304;SDS011;4690;52.422;13.486;2023-09-08T08:42:54;8.68;;;7.50;;
9304;SDS011;4690;52.422;13.486;2023-09-08T08:45:26;8.43;;;7.53;;
9304;SDS011;4690;52.422;13.486;2023-09-08T08:47:54;8.25;;;7.45;;
9304;SDS011;4690;52.422;13.486;2023-09-08T08:50:23;9.68;;;7.00;;
9304;SDS011;4690;52.422;13.486;2023-09-08T08:52:53;11.45;;;7.70;;
9304;SDS011;4690;52.422;13.486;2023-09-08T08:55:19;8.38;;;7.15;;
9304;SDS011;4690;52.422;13.486;2023-09-08T08:57:48;7.68;;;6.82;;
9304;SDS011;4690;52.422;13.486;2023-09-08T09:00:15;8.13;;;7.18;;
9304;SDS011;4690;52.422;13.486;2023-09-08T09:02:46;11.60;;;7.55;;
9304;SDS011;4690;52.422;13.486;2023-09-08T09:05:16;9.82;;;7.07;;
9304;SDS011;4690;52.422;13.486;2023-09-08T09:07:43;9.07;;;7.78;;
9304;SDS011;4690;52.422;13.486;2023-09-08T09:10:10;7.95;;;7.15;;
9304;SDS011;4690;52.422;13.486;2023-09-08T09:12:38;10.32;;;6.97;;
9304;SDS011;4690;52.422;13.486;2023-09-08T09:15:05;11.05;;;7.10;;
9304;SDS011;4690;52.422;13.486;2023-09-08T09:17:37;7.30;;;6.60;;
9304;SDS011;4690;52.422;13.486;2023-09-08T09:20:13;7.28;;;6.63;;
9304;SDS011;4690;52.422;13.486;2023-09-08T09:22:46;10.18;;;6.78;;
9304;SDS011;4690;52.422;13.486;2023-09-08T09:25:24;9.20;;;7.25;;
9304;SDS011;4690;52.422;13.486;2023-09-08T09:28:02;9.75;;;7.07;;
9304;SDS011;4690;52.422;13.486;2023-09-08T09:30:50;7.35;;;6.65;;
9304;SDS011;4690;52.422;13.486;2023-09-08T09:33:19;8.75;;;7.00;;
9304;SDS011;4690;52.422;13.486;2023-09-08T09:35:47;7.65;;;6.32;;
9304;SDS011;4690;52.422;13.486;2023-09-08T09:38:19;8.23;;;6.50;;
9304;SDS011;4690;52.422;13.486;2023-09-08T09:40:47;8.25;;;6.82;;
9304;SDS011;4690;52.422;13.486;2023-09-08T09:43:17;13.25;;;7.20;;
9304;SDS011;4690;52.422;13.486;2023-09-08T09:45:47;7.32;;;6.63;;
9304;SDS011;4690;52.422;13.486;2023-09-08T09:48:13;9.18;;;6.82;;
9304;SDS011;4690;52.422;13.486;2023-09-08T09:50:41;8.30;;;6.47;;
9304;SDS011;4690;52.422;13.486;2023-09-08T09:53:13;7.50;;;6.70;;
9304;SDS011;4690;52.422;13.486;2023-09-08T09:55:42;7.20;;;5.88;;
9304;SDS011;4690;52.422;13.486;2023-09-08T09:58:10;6.57;;;5.97;;
9304;SDS011;4690;52.422;13.486;2023-09-08T10:00:37;8.23;;;5.53;;
9304;SDS011;4690;52.422;13.486;2023-09-08T10:03:06;9.95;;;6.15;;
9304;SDS011;4690;52.422;13.486;2023-09-08T10:05:33;10.43;;;6.90;;
9304;SDS011;4690;52.422;13.486;2023-09-08T10:07:59;7.60;;;6.10;;
9304;SDS011;4690;52.422;13.486;2023-09-08T10:10:26;8.05;;;6.30;;
9304;SDS011;4690;52.422;13.486;2023-09-08T10:12:56;7.72;;;5.97;;
9304;SDS011;4690;52.422;13.486;2023-09-08T10:15:28;8.88;;;6.07;;
9304;SDS011;4690;52.422;13.486;2023-09-08T10:17:56;6.70;;;6.10;;
9304;SDS011;4690;52.422;13.486;2023-09-08T10:20:28;6.50;;;5.78;;
9304;SDS011;4690;52.422;13.486;2023-09-08T10:23:01;6.40;;;5.80;;
9304;SDS011;4690;52.422;13.486;2023-09-08T10:25:59;7.25;;;6.35;;
9304;SDS011;4690;52.422;13.486;2023-09-08T10:28:33;7.47;;;6.32;;
9304;SDS011;4690;52.422;13.486;2023-09-08T10:31:00;7.00;;;6.30;;
9304;SDS011;4690;52.422;13.486;2023-09-08T10:33:28;8.75;;;6.55;;
9304;SDS011;4690;52.422;13.486;2023-09-08T10:35:55;8.95;;;6.60;;
9304;SDS011;4690;52.422;13.486;2023-09-08T10:40:51;7.68;;;6.80;;
9304;SDS011;4690;52.422;13.486;2023-09-08T10:43:18;7.28;;;6.20;;
9304;SDS011;4690;52.422;13.486;2023-09-08T10:45:48;6.60;;;5.97;;
9304;SDS011;4690;52.422;13.486;2023-09-08T10:48:15;6.70;;;6.10;;
9304;SDS011;4690;52.422;13.486;2023-09-08T10:50:41;7.07;;;6.22;;
9304;SDS011;4690;52.422;13.486;2023-09-08T10:53:17;7.63;;;6.30;;
9304;SDS011;4690;52.422;13.486;2023-09-08T10:55:47;6.97;;;5.95;;
9304;SDS011;4690;52.422;13.486;2023-09-08T11:01:02;7.63;;;6.20;;
9304;SDS011;4690;52.422;13.486;2023-09-08T11:06:10;7.35;;;6.20;;
9304;SDS011;4690;52.422;13.486;2023-09-08T11:08:37;7.35;;;6.75;;
9304;SDS011;4690;52.422;13.486;2023-09-08T11:11:07;7.82;;;6.45;;
9304;SDS011;4690;52.422;13.486;2023-09-08T11:13:38;7.50;;;6.80;;
9304;SDS011;4690;52.422;13.486;2023-09-08T11:16:10;6.38;;;5.88;;
9304;SDS011;4690;52.422;13.486;2023-09-08T11:18:36;6.95;;;6.30;;
9304;SDS011;4690;52.422;13.486;2023-09-08T11:21:03;6.88;;;6.20;;
9304;SDS011;4690;52.422;13.486;2023-09-08T11:23:35;7.18;;;6.47;;
9304;SDS011;4690;52.422;13.486;2023-09-08T11:26:02;7.05;;;6.45;;
9304;SDS011;4690;52.422;13.486;2023-09-08T11:28:28;6.72;;;6.00;;
9304;SDS011;4690;52.422;13.486;2023-09-08T11:30:54;7.75;;;6.20;;
9304;SDS011;4690;52.422;13.486;2023-09-08T11:33:21;6.80;;;6.18;;
9304;SDS011;4690;52.422;13.486;2023-09-08T11:35:51;6.25;;;5.70;;
9304;SDS011;4690;52.422;13.486;2023-09-08T11:38:23;6.55;;;5.95;;
9304;SDS011;4690;52.422;13.486;2023-09-08T11:40:55;6.85;;;5.78;;
9304;SDS011;4690;52.422;13.486;2023-09-08T11:43:23;6.68;;;5.88;;
9304;SDS011;4690;52.422;13.486;2023-09-08T11:45:51;6.50;;;6.00;;
9304;SDS011;4690;52.422;13.486;2023-09-08T11:48:17;6.78;;;6.15;;
9304;SDS011;4690;52.422;13.486;2023-09-08T11:50:44;6.50;;;5.95;;
9304;SDS011;4690;52.422;13.486;2023-09-08T11:53:10;6.20;;;5.63;;
9304;SDS011;4690;52.422;13.486;2023-09-08T11:55:35;7.28;;;5.45;;
9304;SDS011;4690;52.422;13.486;2023-09-08T11:58:01;6.70;;;6.10;;
9304;SDS011;4690;52.422;13.486;2023-09-08T12:00:29;8.98;;;6.30;;
9304;SDS011;4690;52.422;13.486;2023-09-08T12:02:55;6.55;;;5.60;;
9304;SDS011;4690;52.422;13.486;2023-09-08T12:05:37;7.60;;;6.15;;
9304;SDS011;4690;52.422;13.486;2023-09-08T12:08:04;5.60;;;5.07;;
9304;SDS011;4690;52.422;13.486;2023-09-08T12:10:37;6.07;;;5.50;;
9304;SDS011;4690;52.422;13.486;2023-09-08T12:13:04;6.35;;;5.75;;
9304;SDS011;4690;52.422;13.486;2023-09-08T12:15:35;6.93;;;5.93;;
9304;SDS011;4690;52.422;13.486;2023-09-08T12:18:07;7.97;;;5.80;;
9304;SDS011;4690;52.422;13.486;2023-09-08T12:20:38;5.82;;;5.32;;
9304;SDS011;4690;52.422;13.486;2023-09-08T12:23:06;6.07;;;5.50;;
9304;SDS011;4690;52.422;13.486;2023-09-08T12:28:15;6.75;;;5.60;;
9304;SDS011;4690;52.422;13.486;2023-09-08T12:30:43;5.95;;;5.35;;
9304;SDS011;4690;52.422;13.486;2023-09-08T12:33:09;6.38;;;5.70;;
9304;SDS011;4690;52.422;13.486;2023-09-08T12:35:36;6.72;;;6.03;;
9304;SDS011;4690;52.422;13.486;2023-09-08T12:38:05;6.70;;;5.93;;
9304;SDS011;4690;52.422;13.486;2023-09-08T12:40:33;6.00;;;5.50;;
9304;SDS011;4690;52.422;13.486;2023-09-08T12:43:02;6.00;;;5.50;;
9304;SDS011;4690;52.422;13.486;2023-09-08T12:45:29;6.38;;;5.38;;
9304;SDS011;4690;52.422;13.486;2023-09-08T12:47:57;6.40;;;5.80;;
9304;SDS011;4690;52.422;13.486;2023-09-08T12:50:26;6.53;;;6.00;;
9304;SDS011;4690;52.422;13.486;2023-09-08T12:52:52;8.43;;;6.05;;
9304;SDS011;4690;52.422;13.486;2023-09-08T12:55:18;6.07;;;5.50;;
9304;SDS011;4690;52.422;13.486;2023-09-08T12:57:44;7.45;;;5.57;;
9304;SDS011;4690;52.422;13.486;2023-09-08T13:00:12;5.95;;;5.43;;
9304;SDS011;4690;52.422;13.486;2023-09-08T13:02:39;6.35;;;5.65;;
9304;SDS011;4690;52.422;13.486;2023-09-08T13:05:06;6.72;;;5.85;;
9304;SDS011;4690;52.422;13.486;2023-09-08T13:07:33;7.43;;;6.05;;
9304;SDS011;4690;52.422;13.486;2023-09-08T13:09:59;5.75;;;5.35;;
9304;SDS011;4690;52.422;13.486;2023-09-08T13:12:25;6.45;;;5.80;;
9304;SDS011;4690;52.422;13.486;2023-09-08T13:14:50;5.88;;;5.47;;
9304;SDS011;4690;52.422;13.486;2023-09-08T13:17:16;6.13;;;5.53;;
9304;SDS011;4690;52.422;13.486;2023-09-08T13:19:43;5.80;;;5.32;;
9304;SDS011;4690;52.422;13.486;2023-09-08T13:22:10;5.78;;;5.22;;
9304;SDS011;4690;52.422;13.486;2023-09-08T13:24:36;6.05;;;5.50;;
9304;SDS011;4690;52.422;13.486;2023-09-08T13:27:02;6.40;;;5.90;;
9304;SDS011;4690;52.422;13.486;2023-09-08T13:29:29;6.43;;;5.82;;
9304;SDS011;4690;52.422;13.486;2023-09-08T13:31:54;6.40;;;5.90;;
9304;SDS011;4690;52.422;13.486;2023-09-08T13:34:21;5.93;;;5.43;;
9304;SDS011;4690;52.422;13.486;2023-09-08T13:36:47;7.20;;;5.78;;
9304;SDS011;4690;52.422;13.486;2023-09-08T13:39:13;5.88;;;5.35;;
9304;SDS011;4690;52.422;13.486;2023-09-08T13:41:59;6.18;;;5.63;;
9304;SDS011;4690;52.422;13.486;2023-09-08T13:44:26;6.15;;;5.57;;
9304;SDS011;4690;52.422;13.486;2023-09-08T13:46:53;6.13;;;5.63;;
9304;SDS011;4690;52.422;13.486;2023-09-08T13:49:20;6.03;;;5.53;;
9304;SDS011;4690;52.422;13.486;2023-09-08T13:51:47;5.85;;;5.20;;
9304;SDS011;4690;52.422;13.486;2023-09-08T13:54:14;6.65;;;5.90;;
9304;SDS011;4690;52.422;13.486;2023-09-08T13:56:40;6.10;;;5.63;;
9304;SDS011;4690;52.422;13.486;2023-09-08T13:59:07;8.77;;;5.97;;
9304;SDS011;4690;52.422;13.486;2023-09-08T14:01:34;6.07;;;5.57;;
9304;SDS011;4690;52.422;13.486;2023-09-08T14:04:01;6.07;;;5.57;;
9304;SDS011;4690;52.422;13.486;2023-09-08T14:06:33;6.60;;;5.47;;
9304;SDS011;4690;52.422;13.486;2023-09-08T14:08:59;5.82;;;5.43;;
9304;SDS011;4690;52.422;13.486;2023-09-08T14:11:25;6.20;;;5.47;;
9304;SDS011;4690;52.422;13.486;2023-09-08T14:13:52;6.05;;;5.55;;
9304;SDS011;4690;52.422;13.486;2023-09-08T14:16:18;6.55;;;5.85;;
9304;SDS011;4690;52.422;13.486;2023-09-08T14:18:44;11.52;;;5.35;;
9304;SDS011;4690;52.422;13.486;2023-09-08T14:21:10;6.15;;;5.55;;
9304;SDS011;4690;52.422;13.486;2023-09-08T14:23:36;5.72;;;5.22;;
9304;SDS011;4690;52.422;13.486;2023-09-08T14:26:05;6.72;;;5.68;;
9304;SDS011;4690;52.422;13.486;2023-09-08T14:28:32;6.28;;;5.30;;
9304;SDS011;4690;52.422;13.486;2023-09-08T14:30:58;6.18;;;5.60;;
9304;SDS011;4690;52.422;13.486;2023-09-08T14:33:24;6.13;;;5.63;;
9304;SDS011;4690;52.422;13.486;2023-09-08T14:35:50;5.85;;;5.20;;
9304;SDS011;4690;52.422;13.486;2023-09-08T14:38:20;6.22;;;5.63;;
9304;SDS011;4690;52.422;13.486;2023-09-08T14:43:24;5.78;;;5.28;;
9304;SDS011;4690;52.422;13.486;2023-09-08T14:45:51;6.15;;;5.55;;
9304;SDS011;4690;52.422;13.486;2023-09-08T14:48:18;6.25;;;5.63;;
9304;SDS011;4690;52.422;13.486;2023-09-08T14:50:45;6.57;;;5.97;;
9304;SDS011;4690;52.422;13.486;2023-09-08T14:53:11;6.57;;;5.18;;
9304;SDS011;4690;52.422;13.486;2023-09-08T14:55:37;6.20;;;5.60;;
9304;SDS011;4690;52.422;13.486;2023-09-08T14:58:04;6.72;;;5.43;;
9304;SDS011;4690;52.422;13.486;2023-09-08T15:00:29;6.28;;;5.68;;
9304;SDS011;4690;52.422;13.486;2023-09-08T15:02:55;6.00;;;5.45;;
9304;SDS011;4690;52.422;13.486;2023-09-08T15:05:21;6.00;;;5.40;;
9304;SDS011;4690;52.422;13.486;2023-09-08T15:07:46;6.03;;;5.53;;
9304;SDS011;4690;52.422;13.486;2023-09-08T15:10:12;5.82;;;5.32;;
9304;SDS011;4690;52.422;13.486;2023-09-08T15:12:38;6.45;;;5.45;;
9304;SDS011;4690;52.422;13.486;2023-09-08T15:15:04;6.00;;;5.40;;
9304;SDS011;4690;52.422;13.486;2023-09-08T15:17:30;5.82;;;5.32;;
9304;SDS011;4690;52.422;13.486;2023-09-08T15:19:56;6.07;;;5.57;;
9304;SDS011;4690;52.422;13.486;2023-09-08T15:22:23;6.60;;;6.00;;